Time;durP1;ratioP1;P1;durP2;ratioP2;P2;SDS_P1;SDS_P2;PMS_P1;PMS_P2;Temp;Humidity;BMP_temperature;BMP_pressure;BME280_temperature;BME280_humidity;BME280_pressure;Samples;Min_cycle;Max_cycle;Signal;HPM_P1;HPM_P2
2023/08/14 00:02:08;;;;;;;5.87;3.90;;;21.50;98.00;;;;;;5052233;28;20832;-75
2023/08/14 00:04:35;;;;;;;5.83;3.30;;;21.40;98.00;;;;;;5051924;28;20497;-75
2023/08/14 00:07:03;;;;;;;6.00;3.70;;;21.30;98.00;;;;;;5052241;28;20458;-75
2023/08/14 00:09:32;;;;;;;6.60;3.57;;;21.30;98.00;;;;;;5050851;28;20457;-76
2023/08/14 00:12:02;;;;;;;6.37;3.90;;;21.40;98.00;;;;;;5052305;28;20458;-75
2023/08/14 00:14:29;;;;;;;6.73;3.60;;;21.50;98.00;;;;;;5052179;28;20837;-75
2023/08/14 00:16:56;;;;;;;5.80;3.80;;;21.50;98.00;;;;;;5052093;28;20452;-75
2023/08/14 00:19:23;;;;;;;6.40;4.30;;;21.40;98.00;;;;;;5051984;28;20458;-75
2023/08/14 00:21:50;;;;;;;5.77;3.77;;;21.40;98.00;;;;;;5052206;28;20454;-76
2023/08/14 00:24:18;;;;;;;6.40;3.73;;;21.40;98.00;;;;;;5052219;28;20454;-75
2023/08/14 00:26:46;;;;;;;5.30;3.40;;;21.40;98.00;;;;;;5051814;28;20492;-75
2023/08/14 00:29:16;;;;;;;5.70;3.60;;;21.50;98.00;;;;;;5051786;28;20449;-75
2023/08/14 00:31:43;;;;;;;6.10;3.70;;;21.70;98.00;;;;;;5052189;28;20468;-75
2023/08/14 00:34:10;;;;;;;7.13;3.97;;;21.50;98.00;;;;;;5051716;28;20966;-75
2023/08/14 00:36:37;;;;;;;5.77;3.53;;;21.40;98.00;;;;;;5051692;28;20493;-76
2023/08/14 00:39:05;;;;;;;4.70;3.53;;;21.40;98.00;;;;;;5051778;28;20460;-76
2023/08/14 00:41:32;;;;;;;5.33;3.53;;;21.30;98.00;;;;;;5051621;28;20865;-75
2023/08/14 00:44:00;;;;;;;5.63;3.53;;;21.20;98.00;;;;;;5051442;28;20828;-75
2023/08/14 00:46:28;;;;;;;15.10;3.70;;;21.20;98.00;;;;;;5051366;28;20956;-75
2023/08/14 00:48:55;;;;;;;8.67;3.87;;;21.20;98.00;;;;;;5051146;28;20458;-75
2023/08/14 00:51:24;;;;;;;5.73;3.60;;;21.20;98.00;;;;;;5051346;28;20516;-75
2023/08/14 00:53:53;;;;;;;6.50;3.60;;;21.30;98.00;;;;;;5051382;28;20474;-75
2023/08/14 00:56:21;;;;;;;5.87;3.67;;;21.30;98.00;;;;;;5051536;28;20489;-75
2023/08/14 00:58:49;;;;;;;8.33;3.50;;;21.30;98.00;;;;;;5051256;28;20450;-75
2023/08/14 01:01:18;;;;;;;5.10;3.60;;;21.30;98.00;;;;;;5050247;28;20453;-76
2023/08/14 01:03:47;;;;;;;5.27;3.60;;;21.20;98.00;;;;;;5051162;28;20457;-75
2023/08/14 01:06:14;;;;;;;7.00;4.20;;;21.10;98.00;;;;;;5051288;28;20454;-75
2023/08/14 01:08:42;;;;;;;5.93;3.70;;;21.10;98.00;;;;;;5051184;28;20458;-75
2023/08/14 01:11:18;;;;;;;5.63;3.97;;;21.00;98.00;;;;;;5051094;28;20457;-75
2023/08/14 01:13:56;;;;;;;7.30;4.17;;;21.10;98.00;;;;;;5049749;28;20494;-76
2023/08/14 01:16:28;;;;;;;5.23;3.73;;;21.10;98.00;;;;;;5051452;28;20842;-75
2023/08/14 01:18:58;;;;;;;6.60;4.03;;;21.10;98.00;;;;;;5051288;28;20465;-74
2023/08/14 01:21:46;;;;;;;6.67;4.07;;;21.10;98.00;;;;;;5051155;28;20460;-75
2023/08/14 01:24:25;;;;;;;6.33;4.00;;;21.00;98.00;;;;;;5051216;28;20449;-75
2023/08/14 01:26:53;;;;;;;10.30;4.30;;;21.00;98.00;;;;;;5050978;28;20461;-75
2023/08/14 01:29:21;;;;;;;5.60;3.60;;;20.90;98.00;;;;;;5050926;28;20803;-76
2023/08/14 01:31:48;;;;;;;5.90;4.10;;;20.90;98.00;;;;;;5051241;28;20464;-76
2023/08/14 01:34:15;;;;;;;7.93;4.50;;;20.90;98.00;;;;;;5050933;28;20446;-75
2023/08/14 01:36:50;;;;;;;6.63;3.93;;;21.00;98.00;;;;;;5050790;28;20489;-76
2023/08/14 01:39:22;;;;;;;8.50;4.40;;;20.90;98.00;;;;;;5050803;28;20468;-75
2023/08/14 01:41:57;;;;;;;7.90;4.50;;;20.90;98.00;;;;;;5050803;28;20460;-75
2023/08/14 01:44:27;;;;;;;7.37;4.23;;;21.00;98.00;;;;;;5050964;28;20461;-75
2023/08/14 01:46:55;;;;;;;6.83;4.40;;;21.10;98.00;;;;;;5050809;28;20512;-76
2023/08/14 01:49:23;;;;;;;6.37;4.20;;;21.20;98.00;;;;;;5050717;28;20983;-76
2023/08/14 01:51:52;;;;;;;6.50;3.97;;;21.50;98.00;;;;;;5050535;28;20457;-75
2023/08/14 01:54:20;;;;;;;6.73;4.37;;;21.50;98.00;;;;;;5050861;28;20446;-75
2023/08/14 01:56:47;;;;;;;6.87;4.50;;;21.40;98.00;;;;;;5050503;28;20477;-75
2023/08/14 01:59:17;;;;;;;8.47;4.60;;;21.20;98.00;;;;;;5050946;28;20449;-75
2023/08/14 02:01:44;;;;;;;10.90;4.73;;;21.20;98.00;;;;;;5050584;28;20465;-75
2023/08/14 02:04:11;;;;;;;9.83;5.60;;;21.20;98.00;;;;;;5050844;28;20462;-75
2023/08/14 02:06:38;;;;;;;12.53;5.50;;;21.40;98.00;;;;;;5054575;28;20454;-75
2023/08/14 02:09:05;;;;;;;9.10;5.80;;;21.50;98.00;;;;;;5054413;28;20449;-75
2023/08/14 02:11:33;;;;;;;11.23;5.33;;;21.60;98.00;;;;;;5054613;28;20482;-75
2023/08/14 02:14:00;;;;;;;9.10;5.27;;;21.70;98.00;;;;;;5054553;28;20457;-75
2023/08/14 02:16:28;;;;;;;8.67;5.00;;;21.80;98.00;;;;;;5052853;28;20485;-74
2023/08/14 02:18:55;;;;;;;6.60;4.20;;;21.90;98.00;;;;;;5054100;28;20446;-74
2023/08/14 02:21:22;;;;;;;7.73;4.23;;;21.80;98.00;;;;;;5054131;28;20450;-74
2023/08/14 02:23:50;;;;;;;9.63;3.77;;;21.80;98.00;;;;;;5053972;28;20454;-74
2023/08/14 02:26:17;;;;;;;7.30;3.53;;;21.70;98.00;;;;;;5053938;28;20795;-74
2023/08/14 02:28:44;;;;;;;4.80;3.27;;;21.60;98.00;;;;;;5052916;28;20450;-74
2023/08/14 02:31:11;;;;;;;4.93;3.43;;;21.60;98.00;;;;;;5053873;28;20453;-74
2023/08/14 02:33:39;;;;;;;4.53;3.07;;;21.60;98.00;;;;;;5054081;28;20457;-74
2023/08/14 02:36:07;;;;;;;4.73;3.03;;;21.50;98.00;;;;;;5053590;28;20469;-74
2023/08/14 02:38:35;;;;;;;6.10;3.40;;;21.40;98.00;;;;;;5053686;28;20456;-74
2023/08/14 02:41:03;;;;;;;4.80;3.43;;;21.50;98.00;;;;;;5053655;28;20457;-74
2023/08/14 02:43:30;;;;;;;5.97;3.93;;;21.50;98.00;;;;;;5053760;28;20460;-75
2023/08/14 02:45:57;;;;;;;9.23;4.17;;;21.50;98.00;;;;;;5054340;28;20457;-74
2023/08/14 02:48:24;;;;;;;5.90;3.80;;;21.50;98.00;;;;;;5052466;28;20457;-74
2023/08/14 02:50:53;;;;;;;4.70;3.43;;;21.40;98.00;;;;;;5053607;28;20485;-74
2023/08/14 02:53:20;;;;;;;6.67;4.10;;;21.40;98.00;;;;;;5053509;28;20472;-74
2023/08/14 02:55:51;;;;;;;5.30;4.00;;;21.40;98.00;;;;;;5053380;28;20482;-74
2023/08/14 02:58:18;;;;;;;6.00;4.13;;;21.30;98.00;;;;;;5053553;28;20461;-74
2023/08/14 03:00:46;;;;;;;6.30;4.03;;;21.30;98.00;;;;;;5053630;28;20454;-74
2023/08/14 03:03:13;;;;;;;6.13;3.60;;;21.30;98.00;;;;;;5053287;28;20968;-74
2023/08/14 03:05:41;;;;;;;6.37;4.07;;;21.40;98.00;;;;;;5053798;28;20461;-74
2023/08/14 03:08:09;;;;;;;5.63;3.70;;;21.50;98.00;;;;;;5053291;28;20461;-74
2023/08/14 03:10:36;;;;;;;7.03;3.77;;;21.30;98.00;;;;;;5053123;28;20800;-74
2023/08/14 03:13:04;;;;;;;9.73;4.30;;;21.20;98.00;;;;;;5053144;28;20461;-74
2023/08/14 03:15:31;;;;;;;6.53;3.90;;;21.10;98.00;;;;;;5051352;28;20482;-74
2023/08/14 03:18:01;;;;;;;7.17;4.03;;;21.00;98.00;;;;;;5053201;28;20458;-74
2023/08/14 03:20:29;;;;;;;5.27;3.90;;;21.00;98.00;;;;;;5053086;28;20885;-74
2023/08/14 03:22:56;;;;;;;8.70;4.30;;;21.00;98.00;;;;;;5051581;28;20454;-74
2023/08/14 03:25:24;;;;;;;6.17;3.70;;;21.00;98.00;;;;;;5052897;28;20446;-74
2023/08/14 03:27:51;;;;;;;5.33;3.53;;;21.00;98.00;;;;;;5052979;28;20484;-74
2023/08/14 03:30:18;;;;;;;4.97;3.37;;;21.20;98.00;;;;;;5053170;28;20882;-75
2023/08/14 03:32:45;;;;;;;8.50;3.87;;;21.30;98.00;;;;;;5053001;28;20442;-74
2023/08/14 03:35:13;;;;;;;6.70;4.30;;;21.40;98.00;;;;;;5052990;28;20480;-74
2023/08/14 03:37:40;;;;;;;4.83;3.67;;;21.30;98.00;;;;;;5052392;28;20516;-74
2023/08/14 03:40:09;;;;;;;5.47;3.70;;;21.30;98.00;;;;;;5051351;28;20445;-74
2023/08/14 03:42:37;;;;;;;8.00;3.90;;;21.20;98.00;;;;;;5052778;28;20453;-74
2023/08/14 03:45:05;;;;;;;6.53;3.30;;;21.20;98.00;;;;;;5052502;28;20838;-74
2023/08/14 03:47:32;;;;;;;7.30;3.77;;;21.10;98.00;;;;;;5052466;28;20469;-74
2023/08/14 03:49:59;;;;;;;7.93;3.83;;;21.00;98.00;;;;;;5051169;28;20485;-74
2023/08/14 03:52:26;;;;;;;7.73;4.40;;;21.00;98.00;;;;;;5052438;28;20453;-74
2023/08/14 03:54:53;;;;;;;5.00;3.60;;;20.90;98.00;;;;;;5052263;28;20461;-74
2023/08/14 03:57:20;;;;;;;6.57;3.80;;;20.90;98.00;;;;;;5052373;28;20576;-75
2023/08/14 03:59:49;;;;;;;6.83;3.73;;;20.80;98.00;;;;;;5052760;28;20441;-75
2023/08/14 04:02:16;;;;;;;5.03;3.30;;;20.80;98.00;;;;;;5051273;28;20468;-74
2023/08/14 04:04:43;;;;;;;6.20;4.10;;;20.80;98.00;;;;;;5052204;28;20461;-74
2023/08/14 04:07:10;;;;;;;6.33;3.67;;;20.80;98.00;;;;;;5052214;28;20951;-74
2023/08/14 04:09:37;;;;;;;8.73;4.37;;;20.80;98.00;;;;;;5052083;28;20453;-74
2023/08/14 04:12:05;;;;;;;5.83;3.80;;;20.70;98.00;;;;;;5052055;28;20450;-75
2023/08/14 04:14:41;;;;;;;7.73;3.77;;;20.70;98.00;;;;;;5050754;28;20884;-75
2023/08/14 04:17:10;;;;;;;8.67;3.93;;;20.60;98.00;;;;;;5050851;28;20493;-74
2023/08/14 04:19:37;;;;;;;6.10;3.90;;;20.60;98.00;;;;;;5052221;28;20454;-74
2023/08/14 04:22:05;;;;;;;7.87;4.17;;;20.60;98.00;;;;;;5051916;28;20446;-74
2023/08/14 04:24:32;;;;;;;5.97;3.50;;;20.70;98.00;;;;;;5051654;28;20461;-74
2023/08/14 04:26:59;;;;;;;5.17;3.47;;;20.70;98.00;;;;;;5049839;28;20457;-74
2023/08/14 04:29:26;;;;;;;3.97;3.17;;;20.70;98.00;;;;;;5051909;28;20457;-74
2023/08/14 04:31:53;;;;;;;7.60;3.47;;;20.70;98.00;;;;;;5051317;28;20450;-75
2023/08/14 04:34:22;;;;;;;4.90;3.50;;;20.50;98.00;;;;;;5051749;28;20456;-74
2023/08/14 04:36:49;;;;;;;5.37;3.10;;;20.40;98.00;;;;;;5051102;28;20474;-74
2023/08/14 04:39:16;;;;;;;5.43;3.73;;;20.30;98.00;;;;;;5051460;28;20512;-74
2023/08/14 04:41:43;;;;;;;6.00;3.63;;;20.30;98.00;;;;;;5050228;28;20450;-75
2023/08/14 04:44:11;;;;;;;6.80;4.00;;;20.20;98.00;;;;;;5051654;28;20816;-74
2023/08/14 04:46:39;;;;;;;7.30;4.17;;;20.40;98.00;;;;;;5051381;28;20468;-74
2023/08/14 04:49:06;;;;;;;6.23;3.60;;;20.30;98.00;;;;;;5051400;28;20983;-74
2023/08/14 04:51:34;;;;;;;8.20;3.97;;;20.30;98.00;;;;;;5051144;28;20985;-75
2023/08/14 04:54:02;;;;;;;6.70;3.63;;;20.30;98.00;;;;;;5051728;28;20819;-74
2023/08/14 04:56:30;;;;;;;6.30;3.73;;;20.30;98.00;;;;;;5051291;28;20488;-74
2023/08/14 04:58:58;;;;;;;6.80;3.87;;;20.40;98.00;;;;;;5051517;28;20493;-74
2023/08/14 05:01:25;;;;;;;6.10;3.83;;;20.40;98.00;;;;;;5051380;28;20769;-74
2023/08/14 05:03:52;;;;;;;5.23;3.60;;;20.50;98.00;;;;;;5051206;28;20454;-74
2023/08/14 05:06:20;;;;;;;7.20;4.20;;;20.40;98.00;;;;;;5051207;28;20465;-75
2023/08/14 05:08:49;;;;;;;5.30;3.53;;;20.40;98.00;;;;;;5051073;28;20454;-75
2023/08/14 05:11:17;;;;;;;5.50;3.73;;;20.40;98.00;;;;;;5051142;28;20900;-74
2023/08/14 05:13:46;;;;;;;6.93;3.73;;;20.50;98.00;;;;;;5051127;28;20457;-74
2023/08/14 05:16:13;;;;;;;8.90;4.40;;;20.40;98.00;;;;;;5049590;28;20995;-75
2023/08/14 05:18:40;;;;;;;8.80;4.20;;;20.40;98.00;;;;;;5051204;28;20458;-75
2023/08/14 05:21:07;;;;;;;10.40;4.00;;;20.40;98.00;;;;;;5050799;28;20461;-74
2023/08/14 05:23:34;;;;;;;7.80;4.33;;;20.40;98.00;;;;;;5051161;28;20857;-74
2023/08/14 05:26:02;;;;;;;5.63;3.70;;;20.30;98.00;;;;;;5050786;28;20458;-74
2023/08/14 05:28:29;;;;;;;6.07;3.33;;;20.30;98.00;;;;;;5051201;28;20445;-74
2023/08/14 05:30:56;;;;;;;8.30;3.90;;;20.30;98.00;;;;;;5050865;28;20458;-74
2023/08/14 05:33:23;;;;;;;6.60;4.27;;;20.40;98.00;;;;;;5050970;28;20445;-74
2023/08/14 05:35:50;;;;;;;7.70;4.13;;;20.40;98.00;;;;;;5050757;28;20450;-74
2023/08/14 05:38:17;;;;;;;5.20;3.53;;;20.40;98.00;;;;;;5052612;28;20485;-74
2023/08/14 05:40:44;;;;;;;6.13;3.87;;;20.50;98.00;;;;;;5055159;28;20456;-74
2023/08/14 05:43:13;;;;;;;5.37;3.63;;;20.50;98.00;;;;;;5053687;28;20824;-74
2023/08/14 05:45:45;;;;;;;5.80;3.67;;;20.60;98.00;;;;;;5055025;28;20457;-74
2023/08/14 05:48:13;;;;;;;5.80;3.83;;;20.80;98.00;;;;;;5055065;28;20456;-74
2023/08/14 05:50:41;;;;;;;8.07;4.10;;;20.80;98.00;;;;;;5053535;28;20466;-74
2023/08/14 05:53:08;;;;;;;7.83;4.00;;;20.90;98.00;;;;;;5054523;28;20858;-74
2023/08/14 05:55:37;;;;;;;7.30;4.50;;;21.00;98.00;;;;;;5053622;28;20785;-74
2023/08/14 05:58:04;;;;;;;7.90;4.50;;;21.00;98.00;;;;;;5054546;28;20485;-74
2023/08/14 06:00:33;;;;;;;14.40;5.87;;;21.10;98.00;;;;;;5054536;28;20456;-74
2023/08/14 06:03:01;;;;;;;8.67;4.70;;;21.20;98.00;;;;;;5054517;28;20454;-74
2023/08/14 06:05:28;;;;;;;7.03;4.07;;;21.20;98.00;;;;;;5054568;28;20943;-74
2023/08/14 06:07:56;;;;;;;7.33;4.30;;;21.20;98.00;;;;;;5054348;28;20535;-74
2023/08/14 06:10:23;;;;;;;9.77;5.90;;;21.30;98.00;;;;;;5054407;28;20460;-67
2023/08/14 06:12:51;;;;;;;7.83;4.60;;;21.40;98.00;;;;;;5054311;28;20974;-68
2023/08/14 06:15:19;;;;;;;8.30;5.00;;;21.50;98.00;;;;;;5054254;28;20514;-68
2023/08/14 06:17:49;;;;;;;11.10;5.90;;;21.60;98.00;;;;;;5054200;28;20833;-68
2023/08/14 06:20:16;;;;;;;10.00;5.37;;;21.70;98.00;;;;;;5054193;28;20461;-68
2023/08/14 06:22:44;;;;;;;10.40;5.50;;;21.70;98.00;;;;;;5054246;28;20477;-69
2023/08/14 06:25:12;;;;;;;5.77;3.57;;;21.60;98.00;;;;;;5054011;28;20955;-73
2023/08/14 06:27:40;;;;;;;4.13;2.90;;;21.70;98.00;;;;;;5053622;28;20454;-72
2023/08/14 06:30:10;;;;;;;5.50;3.17;;;21.80;98.00;;;;;;5053985;28;20461;-72
2023/08/14 06:32:38;;;;;;;5.50;3.70;;;22.00;98.00;;;;;;5052800;28;20450;-73
2023/08/14 06:35:07;;;;;;;5.93;3.47;;;22.30;98.00;;;;;;5054094;28;20458;-73
2023/08/14 06:37:35;;;;;;;8.10;4.33;;;22.60;98.00;;;;;;5053963;28;20547;-72
2023/08/14 06:40:03;;;;;;;6.63;4.33;;;22.70;98.00;;;;;;5054145;28;20454;-72
2023/08/14 06:42:31;;;;;;;6.50;3.77;;;22.50;98.00;;;;;;5054283;28;20503;-70
2023/08/14 06:44:58;;;;;;;9.10;4.90;;;22.50;98.00;;;;;;5053777;28;20495;-69
2023/08/14 06:47:25;;;;;;;5.20;3.80;;;22.40;98.00;;;;;;5053710;28;20490;-69
2023/08/14 06:49:52;;;;;;;7.17;4.00;;;22.50;98.00;;;;;;5052762;28;20465;-68
2023/08/14 06:52:20;;;;;;;6.43;3.80;;;22.70;98.00;;;;;;5053540;28;20450;-70
2023/08/14 06:54:47;;;;;;;6.77;4.30;;;22.90;98.00;;;;;;5053521;28;20467;-67
2023/08/14 06:57:14;;;;;;;9.53;4.20;;;23.00;98.00;;;;;;5052042;28;20485;-68
2023/08/14 06:59:42;;;;;;;6.43;4.00;;;23.10;98.00;;;;;;5053385;28;20454;-67
2023/08/14 07:02:09;;;;;;;6.40;3.73;;;23.20;98.00;;;;;;5053245;28;20952;-71
2023/08/14 07:04:36;;;;;;;7.07;3.90;;;23.30;98.00;;;;;;5053385;28;20547;-68
2023/08/14 07:07:03;;;;;;;5.87;4.00;;;23.40;98.00;;;;;;5053086;28;20454;-68
2023/08/14 07:09:35;;;;;;;8.73;4.50;;;23.60;98.00;;;;;;5053194;28;20473;-68
2023/08/14 07:12:02;;;;;;;6.03;4.37;;;23.70;98.00;;;;;;5053432;28;20457;-69
2023/08/14 07:14:29;;;;;;;6.20;4.20;;;23.50;98.00;;;;;;5053217;28;20540;-67
2023/08/14 07:16:56;;;;;;;6.70;4.40;;;23.60;98.00;;;;;;5046187;28;20465;-68
2023/08/14 07:19:23;;;;;;;6.70;4.13;;;23.70;98.00;;;;;;5040892;28;20450;-69
2023/08/14 07:21:51;;;;;;;8.70;4.60;;;23.80;98.00;;;;;;5052524;28;20453;-67
2023/08/14 07:24:18;;;;;;;7.10;4.80;;;24.00;98.00;;;;;;5051600;28;20865;-67
2023/08/14 07:26:48;;;;;;;6.97;4.60;;;24.00;98.00;;;;;;5052553;28;20460;-67
2023/08/14 07:29:15;;;;;;;9.07;4.67;;;23.90;98.00;;;;;;5052662;28;20540;-67
2023/08/14 07:31:42;;;;;;;7.97;4.33;;;23.70;98.00;;;;;;5051845;28;20943;-67
2023/08/14 07:34:09;;;;;;;8.13;4.67;;;23.80;98.00;;;;;;5051582;28;20449;-67
2023/08/14 07:36:36;;;;;;;7.30;4.53;;;23.70;98.00;;;;;;5051582;28;20450;-67
2023/08/14 07:39:04;;;;;;;6.60;4.47;;;23.50;98.00;;;;;;5052558;28;20485;-67
2023/08/14 07:41:31;;;;;;;6.63;4.37;;;23.50;98.00;;;;;;5052519;28;20450;-66
2023/08/14 07:43:59;;;;;;;6.50;4.50;;;23.50;98.00;;;;;;5052507;28;20476;-67
2023/08/14 07:46:26;;;;;;;8.47;4.60;;;23.70;98.00;;;;;;5052418;28;20457;-67
2023/08/14 07:48:53;;;;;;;8.00;4.20;;;23.70;98.00;;;;;;5051908;28;20458;-67
2023/08/14 07:51:20;;;;;;;8.93;4.63;;;23.80;98.00;;;;;;5052113;28;20442;-67
2023/08/14 07:53:47;;;;;;;8.00;4.63;;;24.00;98.00;;;;;;5052395;28;20485;-67
2023/08/14 07:56:14;;;;;;;6.20;4.10;;;24.00;98.00;;;;;;5052338;28;20457;-67
2023/08/14 07:58:42;;;;;;;7.90;4.47;;;24.10;98.00;;;;;;5051062;28;20988;-67
2023/08/14 08:01:10;;;;;;;5.77;4.00;;;24.10;98.00;;;;;;5052237;28;20461;-67
2023/08/14 08:03:38;;;;;;;7.23;4.57;;;24.20;98.00;;;;;;5052157;28;20866;-67
2023/08/14 08:06:06;;;;;;;10.47;4.30;;;24.30;98.00;;;;;;5052077;28;20503;-67
2023/08/14 08:08:33;;;;;;;7.50;4.20;;;24.40;98.00;;;;;;5052070;28;20954;-67
2023/08/14 08:11:00;;;;;;;6.10;4.00;;;24.50;98.00;;;;;;5051994;28;20728;-67
2023/08/14 08:13:27;;;;;;;6.00;3.93;;;24.60;98.00;;;;;;5052079;28;20442;-67
2023/08/14 08:15:54;;;;;;;6.87;4.47;;;24.70;98.00;;;;;;5051894;28;20526;-67
2023/08/14 08:18:23;;;;;;;6.03;4.07;;;24.90;98.00;;;;;;5050702;28;20559;-67
2023/08/14 08:20:50;;;;;;;5.97;4.13;;;25.00;98.00;;;;;;5051929;28;20948;-67
2023/08/14 08:23:17;;;;;;;6.87;4.13;;;25.20;98.00;;;;;;5051893;28;20461;-67
2023/08/14 08:25:52;;;;;;;4.90;3.77;;;25.20;98.00;;;;;;5051958;28;20822;-67
2023/08/14 08:28:19;;;;;;;8.83;4.40;;;25.40;98.00;;;;;;5052023;28;20467;-67
2023/08/14 08:30:46;;;;;;;6.50;3.97;;;25.40;98.00;;;;;;5051746;28;20511;-67
2023/08/14 08:33:13;;;;;;;9.00;4.50;;;25.40;98.00;;;;;;5052106;28;20457;-67
2023/08/14 08:35:42;;;;;;;8.03;4.70;;;25.50;98.00;;;;;;5051971;28;20877;-67
2023/08/14 08:38:09;;;;;;;7.07;4.33;;;25.40;98.00;;;;;;5051529;28;20825;-67
2023/08/14 08:40:37;;;;;;;8.10;4.27;;;25.40;98.00;;;;;;5034116;28;20541;-67
2023/08/14 08:43:09;;;;;;;5.50;4.00;;;25.50;98.00;;;;;;5051733;28;20850;-67
2023/08/14 08:45:37;;;;;;;5.87;3.97;;;25.60;98.00;;;;;;5051491;28;20950;-67
2023/08/14 08:48:09;;;;;;;6.67;4.20;;;25.70;98.00;;;;;;5051480;28;20959;-67
2023/08/14 08:50:38;;;;;;;6.13;4.00;;;25.80;98.00;;;;;;5051594;28;20560;-67
2023/08/14 08:53:06;;;;;;;5.60;4.00;;;25.90;98.00;;;;;;5051483;28;20446;-67
2023/08/14 08:55:34;;;;;;;5.83;4.10;;;26.20;98.00;;;;;;5051281;28;20454;-67
2023/08/14 08:58:02;;;;;;;5.60;3.70;;;26.20;98.00;;;;;;5051180;28;20477;-67
2023/08/14 09:00:29;;;;;;;6.47;3.80;;;26.30;98.00;;;;;;5051749;28;20438;-67
2023/08/14 09:02:57;;;;;;;7.33;4.30;;;26.60;98.00;;;;;;5050309;28;20450;-67
2023/08/14 09:05:25;;;;;;;4.90;3.97;;;26.70;98.00;;;;;;5051271;28;20457;-67
2023/08/14 09:07:52;;;;;;;5.17;3.70;;;26.80;98.00;;;;;;5051174;28;20465;-67
2023/08/14 09:10:21;;;;;;;6.60;3.93;;;26.90;98.00;;;;;;5051403;28;20453;-66
2023/08/14 09:12:48;;;;;;;6.13;3.90;;;27.00;98.00;;;;;;5050662;28;20445;-67
2023/08/14 09:15:16;;;;;;;5.33;3.60;;;27.10;98.00;;;;;;5049686;28;20457;-67
2023/08/14 09:17:43;;;;;;;5.07;3.50;;;27.20;98.00;;;;;;5050725;28;20486;-67
2023/08/14 09:20:14;;;;;;;15.33;4.10;;;27.40;98.00;;;;;;5050863;28;20940;-67
2023/08/14 09:22:41;;;;;;;6.13;4.00;;;27.60;98.00;;;;;;5051584;28;20536;-67
2023/08/14 09:25:09;;;;;;;5.63;4.10;;;27.70;98.00;;;;;;5051586;28;20453;-67
2023/08/14 09:27:38;;;;;;;7.50;3.90;;;27.80;98.00;;;;;;5052026;28;20802;-67
2023/08/14 09:30:08;;;;;;;5.83;3.77;;;28.00;98.00;;;;;;5051437;28;20458;-67
2023/08/14 09:32:36;;;;;;;4.60;3.70;;;28.10;98.00;;;;;;5051802;28;20458;-67
2023/08/14 09:35:04;;;;;;;5.03;3.67;;;28.20;98.00;;;;;;5051625;28;20461;-67
2023/08/14 09:37:32;;;;;;;5.57;3.93;;;28.30;98.00;;;;;;5051414;28;20467;-67
2023/08/14 09:40:15;;;;;;;6.47;4.10;;;28.40;98.00;;;;;;5051623;28;20950;-67
2023/08/14 09:42:45;;;;;;;6.40;3.50;;;28.60;98.00;;;;;;5051563;28;20450;-67
2023/08/14 09:45:13;;;;;;;4.93;3.63;;;28.90;98.00;;;;;;5051494;28;20450;-66
2023/08/14 09:47:43;;;;;;;5.37;3.83;;;29.00;98.00;;;;;;5050371;28;20551;-66
2023/08/14 09:50:10;;;;;;;6.70;3.93;;;29.20;98.00;;;;;;5059584;28;20504;-65
2023/08/14 09:52:39;;;;;;;5.67;3.90;;;29.20;98.00;;;;;;5065268;28;20816;-65
2023/08/14 09:55:07;;;;;;;6.57;3.50;;;29.30;98.00;;;;;;5051491;28;20449;-65
2023/08/14 09:57:34;;;;;;;8.07;4.10;;;29.40;98.00;;;;;;5050900;28;20453;-65
2023/08/14 10:00:04;;;;;;;5.47;3.77;;;29.50;98.00;;;;;;5051455;28;20457;-65
2023/08/14 10:02:33;;;;;;;5.13;3.83;;;29.60;98.00;;;;;;5051386;28;20464;-66
2023/08/14 10:05:02;;;;;;;8.40;3.93;;;29.80;98.00;;;;;;5051283;28;20496;-65
2023/08/14 10:07:29;;;;;;;5.70;4.13;;;30.00;98.00;;;;;;5051434;28;20461;-66
2023/08/14 10:09:58;;;;;;;6.00;4.00;;;30.20;98.00;;;;;;5051325;28;20484;-65
2023/08/14 10:12:32;;;;;;;6.10;4.30;;;30.30;98.00;;;;;;5051362;28;20460;-65
2023/08/14 10:15:05;;;;;;;4.83;3.70;;;30.40;98.00;;;;;;5051353;28;20453;-66
2023/08/14 10:17:37;;;;;;;5.07;3.80;;;30.50;98.00;;;;;;5051363;28;20461;-65
2023/08/14 10:20:06;;;;;;;8.00;4.70;;;30.60;98.00;;;;;;5051354;28;20484;-65
2023/08/14 10:22:34;;;;;;;7.80;4.27;;;30.70;98.00;;;;;;5051102;28;20519;-65
2023/08/14 10:25:04;;;;;;;6.80;4.03;;;30.90;98.00;;;;;;5052392;28;20478;-65
2023/08/14 10:27:32;;;;;;;5.33;4.20;;;31.00;98.00;;;;;;5054671;28;20461;-65
2023/08/14 10:30:00;;;;;;;5.00;3.90;;;31.20;98.00;;;;;;5053554;28;20464;-66
2023/08/14 10:32:29;;;;;;;5.63;3.90;;;31.20;98.00;;;;;;5054768;28;20870;-65
2023/08/14 10:34:56;;;;;;;5.90;4.57;;;31.20;98.00;;;;;;5054602;28;20465;-65
2023/08/14 10:37:28;;;;;;;6.40;3.97;;;31.40;98.00;;;;;;5054524;28;20456;-66
2023/08/14 10:40:13;;;;;;;4.83;3.77;;;31.60;98.00;;;;;;5054711;28;20967;-66
2023/08/14 10:42:44;;;;;;;8.80;4.40;;;31.80;98.00;;;;;;5054529;28;20461;-65
2023/08/14 10:45:18;;;;;;;5.90;4.37;;;31.90;98.00;;;;;;5054523;28;20445;-66
2023/08/14 10:47:46;;;;;;;8.17;4.50;;;32.10;98.00;;;;;;5054404;28;20962;-65
2023/08/14 10:50:15;;;;;;;6.43;4.37;;;32.40;98.00;;;;;;5054358;28;20469;-66
2023/08/14 10:52:47;;;;;;;6.10;4.40;;;32.50;98.00;;;;;;5054385;28;20449;-66
2023/08/14 10:55:18;;;;;;;8.10;4.77;;;32.60;98.00;;;;;;5054321;28;20454;-66
2023/08/14 10:57:46;;;;;;;7.97;4.80;;;32.60;98.00;;;;;;5054282;28;20446;-66
2023/08/14 11:00:21;;;;;;;6.70;4.93;;;32.60;98.00;;;;;;5054268;28;20521;-65
2023/08/14 11:03:05;;;;;;;6.90;4.90;;;32.70;98.00;;;;;;5054356;28;20477;-66
2023/08/14 11:05:37;;;;;;;6.50;4.40;;;32.90;98.00;;;;;;5054354;28;20464;-66
2023/08/14 11:08:06;;;;;;;6.00;4.50;;;32.90;98.00;;;;;;5054506;28;20482;-66
2023/08/14 11:10:34;;;;;;;7.10;4.73;;;32.90;98.00;;;;;;5054275;28;20453;-66
2023/08/14 11:13:02;;;;;;;6.67;4.67;;;33.20;98.00;;;;;;5054200;28;20488;-66
2023/08/14 11:15:32;;;;;;;6.37;4.40;;;33.20;98.00;;;;;;5054119;28;20485;-66
2023/08/14 11:18:05;;;;;;;9.10;5.27;;;33.20;98.00;;;;;;5053892;28;20486;-66
2023/08/14 11:20:33;;;;;;;7.07;4.97;;;33.10;98.00;;;;;;5053894;28;20454;-67
2023/08/14 11:23:00;;;;;;;7.37;5.30;;;33.10;98.00;;;;;;5052655;28;20457;-65
2023/08/14 11:25:28;;;;;;;7.30;5.20;;;33.20;98.00;;;;;;5053514;28;20919;-66
2023/08/14 11:27:56;;;;;;;7.30;4.83;;;33.30;98.00;;;;;;5053897;28;20942;-66
2023/08/14 11:30:25;;;;;;;6.90;4.70;;;33.10;98.00;;;;;;5053539;28;20457;-68
2023/08/14 11:32:53;;;;;;;6.37;4.77;;;33.10;98.00;;;;;;5053525;28;20454;-65
2023/08/14 11:35:21;;;;;;;6.10;4.67;;;33.10;98.00;;;;;;5053370;28;20985;-65
2023/08/14 11:37:48;;;;;;;6.37;4.73;;;33.00;98.00;;;;;;5052828;28;20450;-65
2023/08/14 11:40:16;;;;;;;8.47;5.30;;;33.30;98.00;;;;;;5052673;28;20490;-65
2023/08/14 11:42:44;;;;;;;6.63;5.20;;;33.50;98.00;;;;;;5052768;28;20998;-66
2023/08/14 11:45:12;;;;;;;9.83;5.17;;;33.40;98.00;;;;;;5052539;28;20453;-68
2023/08/14 11:47:47;;;;;;;7.20;4.93;;;33.10;98.00;;;;;;5052563;28;20460;-65
2023/08/14 11:50:14;;;;;;;8.17;5.67;;;33.20;98.00;;;;;;5052452;28;20489;-65
2023/08/14 11:52:43;;;;;;;10.13;5.17;;;33.40;98.00;;;;;;5052395;28;20459;-65
2023/08/14 11:55:12;;;;;;;9.87;5.37;;;33.50;98.00;;;;;;5052590;28;20499;-65
2023/08/14 11:57:40;;;;;;;7.23;5.27;;;33.60;98.00;;;;;;5052865;28;20460;-64
2023/08/14 12:00:10;;;;;;;8.50;5.33;;;33.90;98.00;;;;;;5052971;28;20521;-64
2023/08/14 12:02:39;;;;;;;8.53;5.47;;;33.60;98.00;;;;;;5053157;28;20449;-64
2023/08/14 12:05:08;;;;;;;7.20;5.00;;;33.60;98.00;;;;;;5053214;28;20493;-64
2023/08/14 12:07:36;;;;;;;8.20;5.40;;;33.60;98.00;;;;;;5052943;28;20457;-65
2023/08/14 12:10:09;;;;;;;7.20;5.03;;;33.50;98.00;;;;;;5053156;28;20442;-65
2023/08/14 12:12:38;;;;;;;8.47;5.30;;;33.70;98.00;;;;;;5052986;28;20449;-64
2023/08/14 12:15:05;;;;;;;7.40;5.23;;;33.90;98.00;;;;;;5052574;28;20457;-65
2023/08/14 12:17:33;;;;;;;8.80;5.03;;;34.00;98.00;;;;;;5052706;28;21017;-65
2023/08/14 12:20:04;;;;;;;13.90;5.07;;;34.10;96.90;;;;;;5052555;28;20481;-65
2023/08/14 12:22:34;;;;;;;9.20;5.37;;;34.10;97.20;;;;;;5052653;28;20456;-65
2023/08/14 12:25:04;;;;;;;8.23;5.20;;;34.10;97.10;;;;;;5052547;28;20829;-65
2023/08/14 12:27:32;;;;;;;6.03;4.70;;;33.90;97.70;;;;;;5052552;28;20445;-64
2023/08/14 12:30:00;;;;;;;7.27;5.10;;;33.60;98.00;;;;;;5052363;28;20454;-65
2023/08/14 12:32:27;;;;;;;7.63;5.50;;;33.40;98.00;;;;;;5052294;28;20958;-64
2023/08/14 12:34:54;;;;;;;7.60;5.50;;;33.10;98.00;;;;;;5052331;28;20452;-64
2023/08/14 12:37:21;;;;;;;7.37;5.13;;;32.80;98.00;;;;;;5052454;28;20454;-64
2023/08/14 12:39:52;;;;;;;9.07;5.57;;;32.50;98.00;;;;;;5052192;28;20482;-64
2023/08/14 12:44:52;;;;;;;6.30;4.80;;;32.10;98.00;;;;;;5030867;28;20482;-64
2023/08/14 12:49:54;;;;;;;9.27;5.10;;;31.70;98.00;;;;;;5006966;28;20550;-65
2023/08/14 12:52:21;;;;;;;8.20;5.07;;;31.60;98.00;;;;;;5010613;28;20209;-65
2023/08/14 12:54:48;;;;;;;8.73;5.43;;;31.60;98.00;;;;;;5010502;28;20521;-65
2023/08/14 12:57:15;;;;;;;8.83;5.50;;;31.40;98.00;;;;;;5011231;28;20459;-65